Aérodrome :
LOGIN :

S'inscrire | Disclaimer

   EN    FR    IT 

 










Légende :    VFR   VFR Marginal   IFR   IFR Intensif   IFR Très Intensif
Visi : 
Plafond : 
>= 8 km
>= 3000ft
5 à 8 km
1000 à 3000 ft
1500m à 5 km
500 à 1000 ft
800 à 1500m
200 à 500 ft
< 800m
< 200 ft
Symboles :   Orages  Brouillard  Fortes neiges  Fortes précipitations  Vent > 20 kt
SIGMETs :   Divers  Orages  Givrage  Turbulence  Onde Orograph.  Cendres Volcan.







- Altitude de l'aérodrome : 468 ft
- Code IATA : GRO


LEGE - Girona Costa Brava

DERNIER METAR :
  • 171900Z 00000KT CAVOK 09/07 Q1019

METARs EXPIRÉS :
  • 171830Z 00000KT CAVOK 10/06 Q1019
  • 171800Z 00000KT CAVOK 10/07 Q1018
  • 171730Z VRB01KT CAVOK 12/07 Q1018
  • 171700Z VRB01KT CAVOK 12/07 Q1018
  • 171630Z 14004KT 110V170 9999 FEW040 14/07 Q1018

TAF TAF LEGE
Valide du 17 à 18h jusqu'au 18 à 18h UTC


171700Z 1718/1818 VRB03KT 9999 FEW030 TX18/1813Z TN03/1806Z
TEMPO 1805/1808 34006KT
TEMPO 1815/1818 17007KT
Pas de NOTAMs connus pour ce terrain.



MET'MAP, la Météo Aéronautique d'un coup d'oeil ! - Copyright ORBIFLY Décembre 2007 - Disclaimer

ORBIFLY MET'MAP TEAM :

Programmation & Développement : Alexandra Zaïnal
Conception & Développement : Baudouin d'Aumeries
Co-Programmation & Développement : Marc-Olivier Méhu
Soutien technique & logistique : Manuel Goepfert

Contact : metmap@orbifly.com




SOURCES & CREDITS :

   NOAA